createdAt,value
2018-12-20T00:01:28.776Z,0.54
2018-12-20T00:03:57.793Z,0.66
2018-12-20T00:06:26.970Z,0.68
2018-12-20T00:08:55.980Z,0.73
2018-12-20T00:11:24.808Z,0.56
2018-12-20T00:13:54.141Z,0.69
2018-12-20T00:16:22.967Z,0.44
2018-12-20T00:18:52.316Z,0.52
2018-12-20T00:21:21.292Z,0.72
2018-12-20T00:23:50.279Z,0.77
2018-12-20T00:26:19.141Z,0.70
2018-12-20T00:28:48.280Z,0.63
2018-12-20T00:31:17.108Z,0.67
2018-12-20T00:33:46.019Z,0.79
2018-12-20T00:36:15.345Z,0.75
2018-12-20T00:38:44.412Z,0.68
2018-12-20T00:41:13.427Z,1.05
2018-12-20T00:43:42.425Z,0.95
2018-12-20T00:46:11.460Z,0.62
2018-12-20T00:48:40.399Z,0.14
2018-12-20T00:51:09.416Z,0.54
2018-12-20T00:53:38.441Z,0.69
2018-12-20T00:56:07.424Z,0.81
2018-12-20T00:58:36.556Z,0.30
2018-12-20T01:01:05.715Z,0.38
2018-12-20T01:03:34.945Z,0.20
2018-12-20T01:06:03.905Z,0.56
2018-12-20T01:08:32.936Z,0.73
2018-12-20T01:11:02.264Z,0.65
2018-12-20T01:13:31.504Z,0.40
2018-12-20T01:16:00.506Z,0.20
2018-12-20T01:18:29.723Z,-0.01
2018-12-20T01:20:58.747Z,0.41
2018-12-20T01:26:06.846Z,0.26
2018-12-20T01:28:35.873Z,0.40
2018-12-20T01:31:04.799Z,0.50
2018-12-20T01:33:33.613Z,0.53
2018-12-20T01:36:02.820Z,0.55
2018-12-20T01:38:32.125Z,0.57
2018-12-20T01:41:01.013Z,0.72
2018-12-20T01:43:29.933Z,0.93
2018-12-20T01:45:59.018Z,0.60
2018-12-20T01:48:29.058Z,0.52
2018-12-20T01:50:58.330Z,0.59
2018-12-20T01:53:27.401Z,0.48
2018-12-20T01:55:56.452Z,0.15
2018-12-20T01:58:25.567Z,0.09
2018-12-20T02:00:54.553Z,0.30
2018-12-20T02:03:23.804Z,0.34
2018-12-20T02:05:52.826Z,0.26
2018-12-20T02:08:21.800Z,0.04
2018-12-20T02:10:50.843Z,0.00
2018-12-20T02:13:19.981Z,0.11
2018-12-20T02:15:49.124Z,0.03
2018-12-20T02:18:18.330Z,-0.20
2018-12-20T02:20:47.357Z,-0.37
2018-12-20T02:23:16.193Z,-0.27
2018-12-20T02:25:45.241Z,-0.57
2018-12-20T02:28:14.400Z,-0.44
2018-12-20T02:30:43.509Z,-0.45
2018-12-20T02:33:12.327Z,-0.33
2018-12-20T02:35:41.304Z,-0.61
2018-12-20T02:38:10.600Z,-0.51
2018-12-20T02:40:39.627Z,-0.40
2018-12-20T02:43:08.588Z,-0.57
2018-12-20T02:45:37.488Z,-0.70
2018-12-20T02:48:06.601Z,-0.50
2018-12-20T02:50:35.665Z,-0.50
2018-12-20T02:53:04.713Z,-0.69
2018-12-20T02:55:33.732Z,-0.42
2018-12-20T02:58:02.555Z,-0.37
2018-12-20T03:00:31.504Z,-0.19
2018-12-20T03:03:00.648Z,-0.08
2018-12-20T03:05:29.469Z,-0.31
2018-12-20T03:07:58.576Z,-0.84
2018-12-20T03:10:27.423Z,-0.64
2018-12-20T03:12:56.683Z,-0.31
2018-12-20T03:15:25.613Z,-0.05
2018-12-20T03:17:54.946Z,-0.11
2018-12-20T03:20:24.322Z,-0.14
2018-12-20T03:22:53.332Z,-0.13
2018-12-20T03:25:22.361Z,0.11
2018-12-20T03:27:51.591Z,0.03
2018-12-20T03:30:20.735Z,0.46
2018-12-20T03:32:49.916Z,0.08
2018-12-20T03:35:18.856Z,0.07
2018-12-20T03:37:47.894Z,-0.09
2018-12-20T03:40:16.921Z,-0.13
2018-12-20T03:42:46.017Z,-0.35
2018-12-20T03:45:14.992Z,-0.93
2018-12-20T03:47:44.242Z,-0.69
2018-12-20T03:50:13.233Z,-0.57
2018-12-20T03:52:42.448Z,-0.26
2018-12-20T03:55:11.758Z,-0.31
2018-12-20T03:57:40.684Z,-0.60
2018-12-20T04:00:09.934Z,-0.64
2018-12-20T04:02:38.968Z,-0.72
2018-12-20T04:05:08.350Z,-0.88
2018-12-20T04:07:38.207Z,-0.80
2018-12-20T04:10:07.566Z,-1.22
2018-12-20T04:12:36.960Z,-0.92
2018-12-20T04:15:06.154Z,-0.71
2018-12-20T04:17:35.329Z,-0.45
2018-12-20T04:20:04.767Z,-0.39
2018-12-20T04:22:33.866Z,-0.40
2018-12-20T04:25:02.756Z,-0.45
2018-12-20T04:27:31.998Z,-0.30
2018-12-20T04:30:01.588Z,-0.47
2018-12-20T04:32:30.708Z,-0.50
2018-12-20T04:34:59.611Z,-0.80
2018-12-20T04:37:28.562Z,-1.44
2018-12-20T04:39:57.459Z,-1.42
2018-12-20T04:42:26.498Z,-1.00
2018-12-20T04:44:55.393Z,-0.80
2018-12-20T04:47:24.305Z,-1.07
2018-12-20T04:49:53.220Z,-0.86
2018-12-20T04:52:22.168Z,-0.92
2018-12-20T04:54:51.266Z,-0.57
2018-12-20T04:57:20.310Z,-0.46
2018-12-20T04:59:49.557Z,-0.57
2018-12-20T05:02:18.766Z,-0.50
2018-12-20T05:04:47.748Z,-0.59
2018-12-20T05:07:17.077Z,-0.58
2018-12-20T05:09:46.272Z,-0.54
2018-12-20T05:12:15.326Z,-0.78
2018-12-20T05:14:44.322Z,-0.58
2018-12-20T05:17:13.472Z,-0.61
2018-12-20T05:19:42.355Z,-0.84
2018-12-20T05:22:11.641Z,-0.87
2018-12-20T05:24:40.601Z,-0.88
2018-12-20T05:27:09.637Z,-0.59
2018-12-20T05:29:38.604Z,-0.78
2018-12-20T05:32:07.410Z,-0.80
2018-12-20T05:34:36.316Z,-0.93
2018-12-20T05:37:05.146Z,-1.23
2018-12-20T05:39:34.183Z,-0.96
2018-12-20T05:42:03.123Z,-1.16
2018-12-20T05:44:32.238Z,-1.12
2018-12-20T05:47:01.299Z,-0.92
2018-12-20T05:49:30.256Z,-0.96
2018-12-20T05:51:59.200Z,-1.18
2018-12-20T05:54:28.168Z,-1.41
2018-12-20T05:56:57.210Z,-0.85
2018-12-20T05:59:26.297Z,-0.81
2018-12-20T06:01:55.257Z,-0.74
2018-12-20T06:04:24.219Z,-0.62
2018-12-20T06:06:53.336Z,-0.60
2018-12-20T06:09:22.909Z,-0.81
2018-12-20T06:11:51.838Z,-0.74
2018-12-20T06:14:20.840Z,-0.72
2018-12-20T06:16:49.937Z,-0.62
2018-12-20T06:19:18.963Z,-1.14
2018-12-20T06:21:47.966Z,-1.05
2018-12-20T06:24:16.997Z,-0.85
2018-12-20T06:26:46.028Z,-0.69
2018-12-20T06:29:14.988Z,-0.56
2018-12-20T06:31:43.944Z,-0.45
2018-12-20T06:34:12.850Z,-0.50
2018-12-20T06:36:41.803Z,-0.24
2018-12-20T06:39:10.612Z,-0.43
2018-12-20T06:41:43.336Z,-0.56
2018-12-20T06:44:12.489Z,-0.72
2018-12-20T06:46:46.909Z,-0.58
2018-12-20T06:49:15.942Z,-0.32
2018-12-20T06:51:44.976Z,-0.53
2018-12-20T06:54:13.898Z,-0.59
2018-12-20T06:56:42.870Z,-0.51
2018-12-20T06:59:11.733Z,-0.49
2018-12-20T07:01:40.559Z,-0.67
2018-12-20T07:04:09.480Z,-0.84
2018-12-20T07:06:38.409Z,-0.54
2018-12-20T07:09:09.164Z,-0.19
2018-12-20T07:11:38.442Z,-0.14
2018-12-20T07:14:07.363Z,-0.17
2018-12-20T07:16:36.387Z,-0.26
2018-12-20T07:19:05.429Z,-0.13
2018-12-20T07:21:34.477Z,-0.01
2018-12-20T07:24:03.421Z,-0.41
2018-12-20T07:26:32.329Z,-0.14
2018-12-20T07:29:01.281Z,-0.01
2018-12-20T07:31:30.101Z,-0.28
2018-12-20T07:33:59.042Z,-0.41
2018-12-20T07:36:27.950Z,-0.49
2018-12-20T07:38:56.865Z,-0.14
2018-12-20T07:41:25.705Z,0.09
2018-12-20T07:43:54.666Z,0.15
2018-12-20T07:46:23.521Z,0.33
2018-12-20T07:48:52.445Z,0.00
2018-12-20T07:51:21.448Z,0.28
2018-12-20T07:53:50.253Z,-0.02
2018-12-20T07:56:19.173Z,0.43
2018-12-20T07:58:48.103Z,0.62
2018-12-20T08:01:17.052Z,0.61
2018-12-20T08:03:46.013Z,0.62
2018-12-20T08:06:14.832Z,0.59
2018-12-20T08:08:43.847Z,0.85
2018-12-20T08:11:12.692Z,0.95
2018-12-20T08:13:41.516Z,0.80
2018-12-20T08:16:10.412Z,0.82
2018-12-20T08:18:39.657Z,1.01
2018-12-20T08:21:08.673Z,1.11
2018-12-20T08:23:37.498Z,1.30
2018-12-20T08:26:06.413Z,1.38
2018-12-20T08:28:35.335Z,1.49
2018-12-20T08:31:04.260Z,1.22
2018-12-20T08:33:33.189Z,0.98
2018-12-20T08:36:02.205Z,0.84
2018-12-20T08:38:31.120Z,1.12
2018-12-20T08:40:59.945Z,1.35
2018-12-20T08:43:28.803Z,1.59
2018-12-20T08:45:57.722Z,1.60
2018-12-20T08:48:26.632Z,1.32
2018-12-20T08:50:55.691Z,1.41
2018-12-20T08:53:24.591Z,1.44
2018-12-20T08:55:53.408Z,1.45
2018-12-20T08:58:22.337Z,1.26
2018-12-20T09:00:51.250Z,1.50
2018-12-20T09:03:20.100Z,1.62
2018-12-20T09:05:49.025Z,2.05
2018-12-20T09:08:18.458Z,2.44
2018-12-20T09:10:47.400Z,2.48
2018-12-20T09:13:16.289Z,2.42
2018-12-20T09:15:45.440Z,2.36
2018-12-20T09:18:14.476Z,2.69
2018-12-20T09:20:43.397Z,2.40
2018-12-20T09:23:12.237Z,2.07
2018-12-20T09:25:41.097Z,2.19
2018-12-20T09:28:09.927Z,2.68
2018-12-20T09:30:38.728Z,2.42
2018-12-20T09:33:08.259Z,2.29
2018-12-20T09:35:37.081Z,2.24
2018-12-20T09:38:06.005Z,2.43
2018-12-20T09:40:34.924Z,2.68
2018-12-20T09:43:04.002Z,2.65
2018-12-20T09:45:32.835Z,2.60
2018-12-20T09:48:05.966Z,2.80
2018-12-20T09:50:35.072Z,2.73
2018-12-20T09:53:04.417Z,2.79
2018-12-20T09:55:33.330Z,3.13
2018-12-20T09:58:02.343Z,3.13
2018-12-20T10:00:31.309Z,2.98
2018-12-20T10:03:00.224Z,3.18
2018-12-20T10:05:29.065Z,3.19
2018-12-20T10:07:58.109Z,2.69
2018-12-20T10:10:26.901Z,2.83
2018-12-20T10:12:55.721Z,2.76
2018-12-20T10:15:24.721Z,3.03
2018-12-20T10:17:53.790Z,2.75
2018-12-20T10:20:22.690Z,3.06
2018-12-20T10:22:51.989Z,2.88
2018-12-20T10:25:20.814Z,2.73
2018-12-20T10:27:49.740Z,2.74
2018-12-20T10:30:18.559Z,3.15
2018-12-20T10:32:47.489Z,3.49
2018-12-20T10:35:16.473Z,3.50
2018-12-20T10:37:45.305Z,3.03
2018-12-20T10:40:14.109Z,2.70
2018-12-20T10:42:43.053Z,2.54
2018-12-20T10:45:12.013Z,2.38
2018-12-20T10:47:41.057Z,2.18
2018-12-20T10:50:10.395Z,2.29
2018-12-20T10:52:39.332Z,2.39
2018-12-20T10:55:08.309Z,2.54
2018-12-20T10:57:37.281Z,2.79
2018-12-20T11:00:07.457Z,2.70
2018-12-20T11:02:42.044Z,2.47
2018-12-20T11:05:16.644Z,2.25
2018-12-20T11:07:51.206Z,2.43
2018-12-20T11:10:26.453Z,2.61
2018-12-20T11:12:55.564Z,2.94
2018-12-20T11:15:24.632Z,2.65
2018-12-20T11:17:53.551Z,2.55
2018-12-20T11:20:22.608Z,2.33
2018-12-20T11:22:51.709Z,2.71
2018-12-20T11:25:20.612Z,2.70
2018-12-20T11:27:49.430Z,2.62
2018-12-20T11:30:18.245Z,2.72
2018-12-20T11:32:47.168Z,2.58
2018-12-20T11:35:16.176Z,2.41
2018-12-20T11:37:45.108Z,2.42
2018-12-20T11:40:13.995Z,2.29
2018-12-20T11:42:42.841Z,2.25
2018-12-20T11:45:11.868Z,2.34
2018-12-20T11:47:45.896Z,2.28
2018-12-20T11:50:15.335Z,2.28
2018-12-20T11:52:44.361Z,2.18
2018-12-20T11:55:13.416Z,2.24
2018-12-20T11:57:42.367Z,2.27
2018-12-20T12:00:11.444Z,2.44
2018-12-20T12:02:40.444Z,2.36
2018-12-20T12:05:09.340Z,2.37
2018-12-20T12:07:38.396Z,2.33
2018-12-20T12:10:08.008Z,2.26
2018-12-20T12:12:37.042Z,2.29
2018-12-20T12:15:06.818Z,2.34
2018-12-20T12:17:35.790Z,2.45
2018-12-20T12:20:05.689Z,2.40
2018-12-20T12:22:34.743Z,2.18
2018-12-20T12:25:04.133Z,2.24
2018-12-20T12:27:33.204Z,2.40
2018-12-20T12:30:02.712Z,2.50
2018-12-20T12:32:31.949Z,2.54
2018-12-20T12:35:00.897Z,2.56
2018-12-20T12:37:29.855Z,2.51
2018-12-20T12:39:59.013Z,2.30
2018-12-20T12:42:27.946Z,2.21
2018-12-20T12:44:56.892Z,2.24
2018-12-20T12:47:31.306Z,2.38
2018-12-20T12:50:00.442Z,2.25
2018-12-20T12:52:29.396Z,2.18
2018-12-20T12:54:58.485Z,2.43
2018-12-20T12:57:27.382Z,2.61
2018-12-20T12:59:56.386Z,2.54
2018-12-20T13:02:25.430Z,2.26
2018-12-20T13:04:54.385Z,2.47
2018-12-20T13:07:23.346Z,2.52
2018-12-20T13:09:52.910Z,2.33
2018-12-20T13:12:21.986Z,2.09
2018-12-20T13:14:51.258Z,1.98
2018-12-20T13:17:20.316Z,2.05
2018-12-20T13:19:49.482Z,2.09
2018-12-20T13:22:18.717Z,2.03
2018-12-20T13:24:48.349Z,2.03
2018-12-20T13:27:17.371Z,2.07
2018-12-20T13:29:46.525Z,1.96
2018-12-20T13:32:15.481Z,1.97
2018-12-20T13:34:44.606Z,2.16
2018-12-20T13:37:15.920Z,2.22
2018-12-20T13:39:44.668Z,2.32
2018-12-20T13:42:13.726Z,2.16
2018-12-20T13:44:42.805Z,1.94
2018-12-20T13:47:11.865Z,1.81
2018-12-20T13:49:41.233Z,1.98
2018-12-20T13:52:10.252Z,1.89
2018-12-20T13:54:39.703Z,1.95
2018-12-20T13:57:08.956Z,1.72
2018-12-20T13:59:38.306Z,1.50
2018-12-20T14:02:07.605Z,1.49
2018-12-20T14:04:36.670Z,1.49
2018-12-20T14:07:05.857Z,1.70
2018-12-20T14:09:35.181Z,1.77
2018-12-20T14:12:04.558Z,1.58
2018-12-20T14:14:34.310Z,1.63
2018-12-20T14:17:03.311Z,1.45
2018-12-20T14:19:32.709Z,1.38
2018-12-20T14:22:02.456Z,1.55
2018-12-20T14:24:31.885Z,1.45
2018-12-20T14:27:00.912Z,1.42
2018-12-20T14:29:30.205Z,1.59
2018-12-20T14:31:59.258Z,1.37
2018-12-20T14:34:28.409Z,1.37
2018-12-20T14:36:57.396Z,1.26
2018-12-20T14:39:26.445Z,1.37
2018-12-20T14:41:56.147Z,1.70
2018-12-20T14:44:25.084Z,1.27
2018-12-20T14:46:54.325Z,1.33
2018-12-20T14:49:23.310Z,1.40
2018-12-20T14:51:52.312Z,1.27
2018-12-20T14:54:21.772Z,1.37
2018-12-20T14:56:51.277Z,1.12
2018-12-20T14:59:20.353Z,1.19
2018-12-20T15:01:49.512Z,1.45
2018-12-20T15:04:19.257Z,1.37
2018-12-20T15:06:48.708Z,1.18
2018-12-20T15:09:17.702Z,1.15
2018-12-20T15:11:47.672Z,1.17
2018-12-20T15:14:16.836Z,1.34
2018-12-20T15:16:45.823Z,1.55
2018-12-20T15:19:14.773Z,1.27
2018-12-20T15:21:43.993Z,1.42
2018-12-20T15:24:13.246Z,1.29
2018-12-20T15:26:44.463Z,1.18
2018-12-20T15:29:14.633Z,1.18
2018-12-20T15:31:53.064Z,1.32
2018-12-20T15:34:16.163Z,1.34
2018-12-20T15:36:45.916Z,1.18
2018-12-20T15:39:15.297Z,1.19
2018-12-20T15:41:44.258Z,1.13
2018-12-20T15:44:13.217Z,1.26
2018-12-20T15:46:42.154Z,1.35
2018-12-20T15:49:11.353Z,1.03
2018-12-20T15:51:40.313Z,1.04
2018-12-20T15:54:09.803Z,1.19
2018-12-20T15:56:38.989Z,1.19
2018-12-20T15:59:08.256Z,1.54
2018-12-20T16:01:38.040Z,1.51
2018-12-20T16:04:07.013Z,1.34
2018-12-20T16:06:36.061Z,1.32
2018-12-20T16:09:06.998Z,1.38
2018-12-20T16:11:36.236Z,1.55
2018-12-20T16:14:16.711Z,1.20
2018-12-20T16:16:45.965Z,1.52
2018-12-20T16:19:14.919Z,1.13
2018-12-20T16:21:43.889Z,1.19
2018-12-20T16:24:13.496Z,1.37
2018-12-20T16:26:42.445Z,1.29
2018-12-20T16:29:11.689Z,1.47
2018-12-20T16:31:41.537Z,1.40
2018-12-20T16:34:10.667Z,1.44
2018-12-20T16:36:40.016Z,1.69
2018-12-20T16:39:09.384Z,1.43
2018-12-20T16:41:38.445Z,1.27
2018-12-20T16:44:07.410Z,1.19
2018-12-20T16:46:36.496Z,1.29
2018-12-20T16:49:13.398Z,1.26
2018-12-20T16:51:36.929Z,1.50
2018-12-20T16:54:06.597Z,1.53
2018-12-20T16:56:35.764Z,1.26
2018-12-20T16:59:04.973Z,1.20
2018-12-20T17:01:34.160Z,1.03
2018-12-20T17:04:03.733Z,1.15
2018-12-20T17:06:32.577Z,1.13
2018-12-20T17:09:02.516Z,1.00
2018-12-20T17:11:31.675Z,1.04
2018-12-20T17:14:00.643Z,1.12
2018-12-20T17:16:29.581Z,1.00
2018-12-20T17:18:58.730Z,0.97
2018-12-20T17:21:27.873Z,0.98
2018-12-20T17:23:56.734Z,1.03
2018-12-20T17:26:25.799Z,1.05
2018-12-20T17:28:54.787Z,0.94
2018-12-20T17:31:23.772Z,0.91
2018-12-20T17:33:53.312Z,1.04
2018-12-20T17:36:22.273Z,0.97
2018-12-20T17:38:51.232Z,1.30
2018-12-20T17:41:20.481Z,1.03
2018-12-20T17:43:49.541Z,1.00
2018-12-20T17:46:18.632Z,1.05
2018-12-20T17:48:47.584Z,1.04
2018-12-20T17:51:16.519Z,1.02
2018-12-20T17:53:45.592Z,1.14
2018-12-20T17:56:17.521Z,1.28
2018-12-20T17:58:46.492Z,1.15
2018-12-20T18:01:15.391Z,1.07
2018-12-20T18:03:44.484Z,1.06
2018-12-20T18:06:13.678Z,1.23
2018-12-20T18:08:43.091Z,1.03
2018-12-20T18:11:12.475Z,1.19
2018-12-20T18:13:41.468Z,1.46
2018-12-20T18:16:10.855Z,1.49
2018-12-20T18:18:39.855Z,1.06
2018-12-20T18:21:08.722Z,1.34
2018-12-20T18:23:37.834Z,1.44
2018-12-20T18:26:06.844Z,1.32
2018-12-20T18:28:35.852Z,1.24
2018-12-20T18:31:04.807Z,1.49
2018-12-20T18:33:33.952Z,1.56
2018-12-20T18:36:03.053Z,1.56
2018-12-20T18:38:32.345Z,1.59
2018-12-20T18:41:01.403Z,1.50
2018-12-20T18:43:30.357Z,1.19
2018-12-20T18:45:59.749Z,1.09
2018-12-20T18:48:28.957Z,1.19
2018-12-20T18:50:57.834Z,1.34
2018-12-20T18:53:27.064Z,1.28
2018-12-20T18:55:56.016Z,1.16
2018-12-20T18:58:24.852Z,1.23
2018-12-20T19:00:53.784Z,1.05
2018-12-20T19:03:23.078Z,1.03
2018-12-20T19:05:51.931Z,1.03
2018-12-20T19:08:21.042Z,1.25
2018-12-20T19:10:50.110Z,1.19
2018-12-20T19:13:19.273Z,1.14
2018-12-20T19:15:48.336Z,1.12
2018-12-20T19:18:17.702Z,1.33
2018-12-20T19:20:46.745Z,1.19
2018-12-20T19:23:15.605Z,1.10
2018-12-20T19:25:44.682Z,1.20
2018-12-20T19:28:13.837Z,1.11
2018-12-20T19:30:42.893Z,1.11
2018-12-20T19:33:11.834Z,1.21
2018-12-20T19:35:40.809Z,1.19
2018-12-20T19:38:09.877Z,1.25
2018-12-20T19:40:39.074Z,1.23
2018-12-20T19:43:08.146Z,1.35
2018-12-20T19:45:45.803Z,1.22
2018-12-20T19:48:08.100Z,1.03
2018-12-20T19:50:37.571Z,1.11
2018-12-20T19:53:06.530Z,1.10
2018-12-20T19:55:35.485Z,1.07
2018-12-20T19:58:04.760Z,1.10
2018-12-20T20:00:34.513Z,1.23
2018-12-20T20:03:03.497Z,1.17
2018-12-20T20:05:32.589Z,1.50
2018-12-20T20:08:01.568Z,1.45
2018-12-20T20:10:30.528Z,1.16
2018-12-20T20:12:59.582Z,1.09
2018-12-20T20:15:29.272Z,1.16
2018-12-20T20:17:58.625Z,1.32
2018-12-20T20:20:27.865Z,1.08
2018-12-20T20:22:56.843Z,1.15
2018-12-20T20:25:25.900Z,1.06
2018-12-20T20:27:54.960Z,0.98
2018-12-20T20:30:24.016Z,1.19
2018-12-20T20:32:53.310Z,1.28
2018-12-20T20:35:22.247Z,1.23
2018-12-20T20:37:51.212Z,1.04
2018-12-20T20:40:20.272Z,1.01
2018-12-20T20:42:49.221Z,1.02
2018-12-20T20:45:18.084Z,0.96
2018-12-20T20:47:47.050Z,0.91
2018-12-20T20:50:22.409Z,0.94
2018-12-20T20:52:47.246Z,1.18
2018-12-20T20:55:16.175Z,0.85
2018-12-20T20:57:45.117Z,0.93
2018-12-20T21:00:14.090Z,1.06
2018-12-20T21:02:43.232Z,0.90
2018-12-20T21:05:12.485Z,0.83
2018-12-20T21:07:41.776Z,0.86
2018-12-20T21:10:11.819Z,0.88
2018-12-20T21:12:40.677Z,0.91
2018-12-20T21:15:11.145Z,1.06
2018-12-20T21:17:40.188Z,1.14
2018-12-20T21:20:11.277Z,1.01
2018-12-20T21:22:40.645Z,1.07
2018-12-20T21:25:09.627Z,1.20
2018-12-20T21:27:38.485Z,0.98
2018-12-20T21:30:09.066Z,0.98
2018-12-20T21:32:37.909Z,0.88
2018-12-20T21:35:07.766Z,0.76
2018-12-20T21:37:36.640Z,0.91
2018-12-20T21:40:06.486Z,0.92
2018-12-20T21:42:35.634Z,0.88
2018-12-20T21:45:05.995Z,0.84
2018-12-20T21:47:34.837Z,0.88
2018-12-20T21:50:04.789Z,0.88
2018-12-20T21:52:33.764Z,0.97
2018-12-20T21:55:02.896Z,1.09
2018-12-20T21:57:31.836Z,1.10
2018-12-20T22:00:01.423Z,1.07
2018-12-20T22:02:30.995Z,1.26
2018-12-20T22:04:59.962Z,1.26
2018-12-20T22:07:29.008Z,1.08
2018-12-20T22:09:57.935Z,1.12
2018-12-20T22:12:26.872Z,1.08
2018-12-20T22:14:55.724Z,1.12
2018-12-20T22:17:24.668Z,1.09
2018-12-20T22:19:58.618Z,0.89
2018-12-20T22:22:24.603Z,0.84
2018-12-20T22:24:53.603Z,1.13
2018-12-20T22:27:23.158Z,1.15
2018-12-20T22:29:52.111Z,1.01
2018-12-20T22:32:20.977Z,1.06
2018-12-20T22:34:49.826Z,1.30
2018-12-20T22:37:18.761Z,1.25
2018-12-20T22:39:47.592Z,1.11
2018-12-20T22:42:17.141Z,1.20
2018-12-20T22:44:45.984Z,1.01
2018-12-20T22:47:14.937Z,1.04
2018-12-20T22:49:43.920Z,0.91
2018-12-20T22:52:12.885Z,0.84
2018-12-20T22:54:41.757Z,1.17
2018-12-20T22:57:10.693Z,0.93
2018-12-20T22:59:39.624Z,1.21
2018-12-20T23:02:08.601Z,1.02
2018-12-20T23:04:37.721Z,1.11
2018-12-20T23:07:06.802Z,1.22
2018-12-20T23:09:35.949Z,0.91
2018-12-20T23:12:04.905Z,0.91
2018-12-20T23:14:33.925Z,1.08
2018-12-20T23:17:02.965Z,0.99
2018-12-20T23:19:31.902Z,1.04
2018-12-20T23:22:00.822Z,1.09
2018-12-20T23:24:29.781Z,0.95
2018-12-20T23:26:58.636Z,1.04
2018-12-20T23:29:27.585Z,0.84
2018-12-20T23:31:56.441Z,0.75
2018-12-20T23:34:25.490Z,0.84
2018-12-20T23:36:54.450Z,0.76
2018-12-20T23:39:23.409Z,0.92
2018-12-20T23:41:52.367Z,0.94
2018-12-20T23:44:21.297Z,0.82
2018-12-20T23:46:50.245Z,0.96
2018-12-20T23:49:19.188Z,0.81
2018-12-20T23:51:48.149Z,0.78
2018-12-20T23:54:17.214Z,0.86
2018-12-20T23:56:46.053Z,0.91
2018-12-20T23:59:14.983Z,0.79
